Time;durP1;ratioP1;P1;durP2;ratioP2;P2;SDS_P1;SDS_P2;PMS_P1;PMS_P2;Temp;Humidity;BMP_temperature;BMP_pressure;BME280_temperature;BME280_humidity;BME280_pressure;Samples;Min_cycle;Max_cycle;Signal;HPM_P1;HPM_P2
2021/12/22 00:02:16;;;;;;;63.55;31.73;;;;;;;;;;5069401;27;97019;-77
2021/12/22 00:04:45;;;;;;;61.13;31.40;;;;;;;;;;5069311;27;97275;-77
2021/12/22 00:07:12;;;;;;;65.70;32.63;;;;;;;;;;5069460;27;95558;-75
2021/12/22 00:09:38;;;;;;;65.55;33.42;;;;;;;;;;5069730;27;95708;-80
2021/12/22 00:12:05;;;;;;;64.90;33.33;;;;;;;;;;5069271;27;98003;-74
2021/12/22 00:14:32;;;;;;;61.90;31.75;;;;;;;;;;5070034;27;95180;-76
2021/12/22 00:16:58;;;;;;;60.80;30.63;;;;;;;;;;5068761;27;96973;-78
2021/12/22 00:19:24;;;;;;;60.28;30.67;;;;;;;;;;5072208;27;97331;-76
2021/12/22 00:21:51;;;;;;;60.83;30.85;;;;;;;;;;5069969;27;96733;-77
2021/12/22 00:24:17;;;;;;;61.55;30.90;;;;;;;;;;5068734;27;97505;-75
2021/12/22 00:26:43;;;;;;;62.00;32.63;;;;;;;;;;5069036;27;95279;-75
2021/12/22 00:29:14;;;;;;;67.18;31.90;;;;;;;;;;5068823;27;96766;-77
2021/12/22 00:31:56;;;;;;;60.15;30.65;;;;;;;;;;5069067;27;97539;-77
2021/12/22 00:34:25;;;;;;;54.25;29.02;;;;;;;;;;5069386;27;95295;-74
2021/12/22 00:36:52;;;;;;;55.17;28.65;;;;;;;;;;5069425;27;96975;-75
2021/12/22 00:39:18;;;;;;;56.60;29.75;;;;;;;;;;5067311;27;97675;-80
2021/12/22 00:41:45;;;;;;;62.20;31.52;;;;;;;;;;5072562;27;95425;-80
2021/12/22 00:44:12;;;;;;;60.85;30.42;;;;;;;;;;5068833;27;98091;-77
2021/12/22 00:46:39;;;;;;;65.75;30.60;;;;;;;;;;5068963;27;95417;-80
2021/12/22 00:49:07;;;;;;;54.08;28.35;;;;;;;;;;5068940;27;97363;-76
2021/12/22 00:51:33;;;;;;;58.10;30.10;;;;;;;;;;5069205;27;97945;-80
2021/12/22 00:54:00;;;;;;;63.35;29.85;;;;;;;;;;5068538;27;95565;-79
2021/12/22 00:56:27;;;;;;;58.60;29.48;;;;;;;;;;5068903;27;97047;-79
2021/12/22 00:58:53;;;;;;;60.03;29.70;;;;;;;;;;5068223;27;97690;-78
2021/12/22 01:01:20;;;;;;;58.10;29.50;;;;;;;;;;5069382;27;96473;-76
2021/12/22 01:03:46;;;;;;;58.35;30.63;;;;;;;;;;5071971;27;96982;-77
2021/12/22 01:06:14;;;;;;;55.88;28.70;;;;;;;;;;5070297;27;95391;-81
2021/12/22 01:08:40;;;;;;;55.78;29.27;;;;;;;;;;5072686;27;96872;-80
2021/12/22 01:11:09;;;;;;;56.22;28.02;;;;;;;;;;5072183;27;97184;-81
2021/12/22 01:13:36;;;;;;;52.05;28.30;;;;;;;;;;5072300;27;95342;-80
2021/12/22 01:16:02;;;;;;;54.05;27.85;;;;;;;;;;5073103;27;97125;-80
2021/12/22 01:18:32;;;;;;;56.92;27.77;;;;;;;;;;5072579;27;97286;-81
2021/12/22 01:23:33;;;;;;;59.95;28.00;;;;;;;;;;5075178;27;96835;-80
2021/12/22 01:26:03;;;;;;;50.08;27.50;;;;;;;;;;5072719;27;95231;-80
2021/12/22 01:28:29;;;;;;;54.88;27.90;;;;;;;;;;5071636;27;97173;-79
2021/12/22 01:31:01;;;;;;;52.33;27.63;;;;;;;;;;5071374;27;97288;-80
2021/12/22 01:33:27;;;;;;;50.05;26.67;;;;;;;;;;5071689;27;95739;-79
2021/12/22 01:35:54;;;;;;;51.88;27.35;;;;;;;;;;5072029;27;97154;-77
2021/12/22 01:38:20;;;;;;;52.60;26.60;;;;;;;;;;5071245;27;97169;-80
2021/12/22 01:40:46;;;;;;;54.35;26.30;;;;;;;;;;5072429;27;95350;-79
2021/12/22 01:43:14;;;;;;;53.15;27.45;;;;;;;;;;5071166;27;96819;-80
2021/12/22 01:51:29;;;;;;;53.65;26.08;;;;;;;;;;5071574;27;97309;-79
2021/12/22 01:53:58;;;;;;;51.83;27.05;;;;;;;;;;5070666;27;95948;-77
2021/12/22 01:56:27;;;;;;;53.00;27.23;;;;;;;;;;5071131;27;96858;-75
2021/12/22 01:58:55;;;;;;;51.53;26.08;;;;;;;;;;5060849;27;97279;-76
2021/12/22 02:01:22;;;;;;;51.53;26.30;;;;;;;;;;5071311;27;95359;-80
2021/12/22 02:03:49;;;;;;;50.80;26.77;;;;;;;;;;5071172;27;97108;-80
2021/12/22 02:06:17;;;;;;;47.63;25.17;;;;;;;;;;5071490;27;97620;-80
2021/12/22 02:08:44;;;;;;;53.28;27.13;;;;;;;;;;5072702;27;96779;-76
2021/12/22 02:11:16;;;;;;;52.03;25.92;;;;;;;;;;5070811;27;97702;-79
2021/12/22 02:13:46;;;;;;;53.47;26.77;;;;;;;;;;5071616;27;96005;-81
2021/12/22 02:16:15;;;;;;;49.15;26.48;;;;;;;;;;5071024;27;95261;-81
2021/12/22 02:18:44;;;;;;;55.83;26.08;;;;;;;;;;5070334;27;97537;-81
2021/12/22 02:21:13;;;;;;;47.22;26.23;;;;;;;;;;5071460;27;95328;-79
2021/12/22 02:23:40;;;;;;;53.22;27.55;;;;;;;;;;5070815;27;96758;-79
2021/12/22 02:26:12;;;;;;;52.08;25.92;;;;;;;;;;5071270;27;97285;-79
2021/12/22 02:28:43;;;;;;;;;;;;;;;;;;5071310;27;95271;-79
2021/12/22 02:31:14;;;;;;;48.17;24.50;;;;;;;;;;5073171;27;124701;-77
2021/12/22 02:33:42;;;;;;;47.15;25.25;;;;;;;;;;5070945;27;95293;-80
2021/12/22 02:38:46;;;;;;;53.20;25.67;;;;;;;;;;5070999;27;97266;-81
2021/12/22 02:41:14;;;;;;;44.40;24.98;;;;;;;;;;5071335;27;95523;-79
2021/12/22 02:43:53;;;;;;;55.15;24.73;;;;;;;;;;5070857;27;96588;-80
2021/12/22 02:46:21;;;;;;;49.97;23.40;;;;;;;;;;5070773;27;97294;-82
2021/12/22 02:48:48;;;;;;;43.38;22.92;;;;;;;;;;5070980;27;95723;-80
2021/12/22 02:51:15;;;;;;;48.00;22.95;;;;;;;;;;5070007;27;96803;-80
2021/12/22 02:53:48;;;;;;;42.58;22.73;;;;;;;;;;5073406;27;97716;-77
2021/12/22 03:04:07;;;;;;;38.70;19.65;;;;;;;;;;5070939;27;97161;-79
2021/12/22 03:06:38;;;;;;;;;;;;;;;;;;5070867;27;97241;-78
2021/12/22 03:09:19;;;;;;;33.75;17.88;;;;;;;;;;5060475;27;119764;-77
2021/12/22 03:11:45;;;;;;;37.55;19.45;;;;;;;;;;5071204;27;96796;-79
2021/12/22 03:14:13;;;;;;;38.17;19.02;;;;;;;;;;5068512;27;97512;-81
2021/12/22 03:16:42;;;;;;;39.75;19.98;;;;;;;;;;5074232;27;95195;-79
2021/12/22 03:19:13;;;;;;;39.45;20.20;;;;;;;;;;5069788;27;97482;-80
2021/12/22 03:21:43;;;;;;;38.83;20.10;;;;;;;;;;5062759;27;95197;-79
2021/12/22 03:24:10;;;;;;;39.08;19.67;;;;;;;;;;5068977;27;96818;-76
2021/12/22 03:26:41;;;;;;;44.90;21.23;;;;;;;;;;5069796;27;97405;-76
2021/12/22 03:29:09;;;;;;;39.95;20.20;;;;;;;;;;5069285;27;95405;-79
2021/12/22 03:31:36;;;;;;;37.25;19.20;;;;;;;;;;5070471;27;97000;-76
2021/12/22 03:34:02;;;;;;;41.70;19.85;;;;;;;;;;5069817;27;97392;-79
2021/12/22 03:36:29;;;;;;;38.55;19.73;;;;;;;;;;5073775;27;95403;-75
2021/12/22 03:38:56;;;;;;;40.70;20.25;;;;;;;;;;5070321;27;97370;-76
2021/12/22 03:41:22;;;;;;;43.45;20.20;;;;;;;;;;5069586;27;95739;-76
2021/12/22 03:43:48;;;;;;;40.67;20.58;;;;;;;;;;5069783;27;96601;-76
2021/12/22 03:46:15;;;;;;;40.08;19.63;;;;;;;;;;5069856;27;97302;-77
2021/12/22 03:48:42;;;;;;;46.67;20.48;;;;;;;;;;5069466;27;95853;-78
2021/12/22 03:51:08;;;;;;;38.33;19.35;;;;;;;;;;5070248;27;97061;-75
2021/12/22 03:53:35;;;;;;;42.80;19.85;;;;;;;;;;5069548;27;97225;-76
2021/12/22 03:56:02;;;;;;;35.83;19.48;;;;;;;;;;5069872;27;95121;-77
2021/12/22 03:58:28;;;;;;;43.72;19.65;;;;;;;;;;5072663;27;96948;-77
2021/12/22 04:00:56;;;;;;;37.60;18.90;;;;;;;;;;5070118;27;95470;-75
2021/12/22 04:03:27;;;;;;;38.92;18.88;;;;;;;;;;5069242;27;97255;-77
2021/12/22 04:05:54;;;;;;;40.25;19.63;;;;;;;;;;5069734;27;97282;-76
2021/12/22 04:08:20;;;;;;;38.55;19.58;;;;;;;;;;5068217;27;95428;-79
2021/12/22 04:10:47;;;;;;;39.08;19.83;;;;;;;;;;5069412;27;97003;-76
2021/12/22 04:13:14;;;;;;;38.15;18.48;;;;;;;;;;5069374;27;97322;-78
2021/12/22 04:15:41;;;;;;;35.75;19.27;;;;;;;;;;5069816;27;95309;-76
2021/12/22 04:18:08;;;;;;;37.05;19.30;;;;;;;;;;5069050;27;96859;-80
2021/12/22 04:20:34;;;;;;;33.88;18.70;;;;;;;;;;5073000;27;97453;-80
2021/12/22 04:23:04;;;;;;;35.85;19.40;;;;;;;;;;5069345;27;96811;-78
2021/12/22 04:25:31;;;;;;;40.67;19.40;;;;;;;;;;5069891;27;97433;-82
2021/12/22 04:28:04;;;;;;;41.05;19.15;;;;;;;;;;5069655;27;95124;-77
2021/12/22 04:30:34;;;;;;;41.72;19.80;;;;;;;;;;5067084;27;97207;-78
2021/12/22 04:33:00;;;;;;;42.60;19.92;;;;;;;;;;5069429;27;97335;-80
2021/12/22 04:35:27;;;;;;;39.75;18.73;;;;;;;;;;5069427;27;95298;-80
2021/12/22 04:37:53;;;;;;;39.63;19.77;;;;;;;;;;5067589;27;97346;-79
2021/12/22 04:40:20;;;;;;;50.42;21.02;;;;;;;;;;5061227;27;97395;-80
2021/12/22 04:42:46;;;;;;;44.70;20.20;;;;;;;;;;5052221;27;96136;-80
2021/12/22 04:45:13;;;;;;;34.70;20.08;;;;;;;;;;5047592;27;97265;-81
2021/12/22 04:47:40;;;;;;;36.20;19.45;;;;;;;;;;5056547;27;95461;-81
2021/12/22 04:50:10;;;;;;;39.70;20.00;;;;;;;;;;5069227;27;95708;-78
2021/12/22 04:52:45;;;;;;;37.53;18.80;;;;;;;;;;5068297;27;97681;-79
2021/12/22 04:55:11;;;;;;;40.17;20.70;;;;;;;;;;5069153;27;95276;-80
2021/12/22 04:57:37;;;;;;;39.15;20.27;;;;;;;;;;5069030;27;96808;-79
2021/12/22 05:00:05;;;;;;;40.75;21.25;;;;;;;;;;5067986;27;96534;-79
2021/12/22 05:02:34;;;;;;;42.08;21.23;;;;;;;;;;5069285;27;95379;-79
2021/12/22 05:05:00;;;;;;;42.00;19.80;;;;;;;;;;5071683;27;96808;-77
2021/12/22 05:07:27;;;;;;;37.65;20.60;;;;;;;;;;5068735;27;95631;-78
2021/12/22 05:09:53;;;;;;;38.58;19.85;;;;;;;;;;5069326;27;97955;-81
2021/12/22 05:12:19;;;;;;;45.05;20.65;;;;;;;;;;5068237;27;97759;-78
2021/12/22 05:14:50;;;;;;;39.65;20.08;;;;;;;;;;5069132;27;95346;-80
2021/12/22 05:17:24;;;;;;;38.88;20.20;;;;;;;;;;5068312;27;96814;-79
2021/12/22 05:19:51;;;;;;;42.47;20.55;;;;;;;;;;5048353;27;97161;-78
2021/12/22 05:22:17;;;;;;;35.47;18.48;;;;;;;;;;5066957;27;95434;-79
2021/12/22 05:24:43;;;;;;;44.70;19.73;;;;;;;;;;5068687;27;97111;-78
2021/12/22 05:27:12;;;;;;;41.42;19.75;;;;;;;;;;5070459;27;96521;-77
2021/12/22 05:29:39;;;;;;;42.03;19.38;;;;;;;;;;5067900;27;96715;-80
2021/12/22 05:32:06;;;;;;;40.83;19.40;;;;;;;;;;5063569;27;97363;-78
2021/12/22 05:34:33;;;;;;;39.47;19.60;;;;;;;;;;5067537;27;95406;-77
2021/12/22 05:36:59;;;;;;;40.33;20.42;;;;;;;;;;5068672;27;97389;-78
2021/12/22 05:39:26;;;;;;;43.22;19.65;;;;;;;;;;5068210;27;96937;-77
2021/12/22 05:41:52;;;;;;;34.90;18.52;;;;;;;;;;5060582;27;95804;-80
2021/12/22 05:44:21;;;;;;;39.53;19.58;;;;;;;;;;5050940;27;97111;-78
2021/12/22 05:46:47;;;;;;;39.97;18.55;;;;;;;;;;5071978;27;100472;-79
2021/12/22 05:49:14;;;;;;;42.95;19.63;;;;;;;;;;5068130;27;96727;-76
2021/12/22 05:51:40;;;;;;;36.92;19.30;;;;;;;;;;5064032;27;97340;-76
2021/12/22 05:54:06;;;;;;;38.55;19.50;;;;;;;;;;5071635;27;96033;-77
2021/12/22 05:56:33;;;;;;;39.65;19.95;;;;;;;;;;5071541;27;97043;-76
2021/12/22 05:59:00;;;;;;;38.97;19.10;;;;;;;;;;5071991;27;97281;-75
2021/12/22 06:01:27;;;;;;;43.17;20.92;;;;;;;;;;5068998;27;95368;-79
2021/12/22 06:03:53;;;;;;;39.55;19.27;;;;;;;;;;5067986;27;96995;-77
2021/12/22 06:06:20;;;;;;;38.95;19.15;;;;;;;;;;5071489;27;97369;-77
2021/12/22 06:08:47;;;;;;;37.05;19.65;;;;;;;;;;5062268;27;95665;-78
2021/12/22 06:11:13;;;;;;;35.53;19.95;;;;;;;;;;5062196;27;97817;-78
2021/12/22 06:13:40;;;;;;;42.75;20.63;;;;;;;;;;5071624;27;95135;-78
2021/12/22 06:16:06;;;;;;;42.72;20.85;;;;;;;;;;5071058;27;96916;-78
2021/12/22 06:18:34;;;;;;;45.58;20.67;;;;;;;;;;5071214;27;98221;-77
2021/12/22 06:21:01;;;;;;;43.92;20.13;;;;;;;;;;5070306;27;96159;-76
2021/12/22 06:23:27;;;;;;;46.30;21.00;;;;;;;;;;5070993;27;97407;-76
2021/12/22 06:25:54;;;;;;;40.58;20.92;;;;;;;;;;5071408;27;97595;-77
2021/12/22 06:28:20;;;;;;;49.95;21.90;;;;;;;;;;5071643;27;95834;-78
2021/12/22 06:30:46;;;;;;;49.65;21.77;;;;;;;;;;5074041;27;96971;-76
2021/12/22 06:33:13;;;;;;;54.45;23.42;;;;;;;;;;5070838;27;95688;-78
2021/12/22 06:35:39;;;;;;;47.40;22.00;;;;;;;;;;5070447;27;97261;-79
2021/12/22 06:38:05;;;;;;;41.42;21.10;;;;;;;;;;5070421;27;97709;-77
2021/12/22 06:40:32;;;;;;;54.97;22.70;;;;;;;;;;5071643;27;95343;-79
2021/12/22 06:42:58;;;;;;;47.30;24.83;;;;;;;;;;5070959;27;97097;-79
2021/12/22 06:45:25;;;;;;;55.92;25.77;;;;;;;;;;5070475;27;97383;-77
2021/12/22 06:47:52;;;;;;;51.35;23.83;;;;;;;;;;5071433;27;95410;-80
2021/12/22 06:50:19;;;;;;;54.58;24.05;;;;;;;;;;5069746;27;96632;-77
2021/12/22 06:52:45;;;;;;;56.38;25.13;;;;;;;;;;5073702;27;96705;-75
2021/12/22 06:55:11;;;;;;;42.20;21.90;;;;;;;;;;5070706;27;96860;-77
2021/12/22 06:57:38;;;;;;;40.22;20.60;;;;;;;;;;5070372;27;97179;-77
2021/12/22 07:00:05;;;;;;;41.20;20.45;;;;;;;;;;5071190;27;95328;-80
2021/12/22 07:02:35;;;;;;;45.65;22.02;;;;;;;;;;5071282;27;96909;-80
2021/12/22 07:05:03;;;;;;;40.15;19.95;;;;;;;;;;5070739;27;97874;-81
2021/12/22 07:07:30;;;;;;;44.85;20.58;;;;;;;;;;5071379;27;95261;-78
2021/12/22 07:09:56;;;;;;;45.47;20.75;;;;;;;;;;5071235;27;96272;-77
2021/12/22 07:12:23;;;;;;;42.70;20.35;;;;;;;;;;5069770;27;97340;-76
2021/12/22 07:14:49;;;;;;;46.78;20.50;;;;;;;;;;5073791;27;95695;-76
2021/12/22 07:17:15;;;;;;;48.08;21.92;;;;;;;;;;5068812;27;97663;-76
2021/12/22 07:19:42;;;;;;;42.15;20.52;;;;;;;;;;5068667;27;97021;-80
2021/12/22 07:22:08;;;;;;;47.72;21.70;;;;;;;;;;5070276;27;97081;-76
2021/12/22 07:24:35;;;;;;;42.28;20.88;;;;;;;;;;5062607;27;97376;-75
2021/12/22 07:27:01;;;;;;;46.97;21.75;;;;;;;;;;5068901;27;95708;-75
2021/12/22 07:29:27;;;;;;;39.97;21.67;;;;;;;;;;5070331;27;97024;-79
2021/12/22 07:31:54;;;;;;;46.72;21.90;;;;;;;;;;5069716;27;97401;-75
2021/12/22 07:34:24;;;;;;;41.08;20.88;;;;;;;;;;5075593;27;96143;-78
2021/12/22 07:36:55;;;;;;;44.28;20.27;;;;;;;;;;5070379;27;97270;-77
2021/12/22 07:39:21;;;;;;;43.20;20.67;;;;;;;;;;5069692;27;95434;-74
2021/12/22 07:41:47;;;;;;;46.08;22.17;;;;;;;;;;5068903;27;96870;-80
2021/12/22 07:44:14;;;;;;;46.50;20.85;;;;;;;;;;5068783;27;97649;-77
2021/12/22 07:46:40;;;;;;;45.10;19.95;;;;;;;;;;5068839;27;95825;-77
2021/12/22 07:49:06;;;;;;;47.10;20.95;;;;;;;;;;5069677;27;97161;-78
2021/12/22 07:51:33;;;;;;;43.33;20.38;;;;;;;;;;5068577;27;97344;-76
2021/12/22 16:23:41;;;;;;;47.65;24.50;;;;;;;;;;5026941;28;95380;-75
2021/12/22 16:26:07;;;;;;;47.35;24.60;;;;;;;;;;5012782;28;96816;-77
2021/12/22 16:28:33;;;;;;;47.25;26.40;;;;;;;;;;5019127;28;95628;-80
2021/12/22 16:31:01;;;;;;;48.08;25.63;;;;;;;;;;5025038;28;97016;-77
2021/12/22 16:33:27;;;;;;;50.55;25.48;;;;;;;;;;5023739;28;97388;-78
2021/12/22 16:35:54;;;;;;;52.58;24.55;;;;;;;;;;5023601;28;95322;-78
2021/12/22 16:38:20;;;;;;;38.65;23.65;;;;;;;;;;5006468;28;96819;-79
2021/12/22 16:40:46;;;;;;;42.17;23.38;;;;;;;;;;5018186;28;97350;-79
2021/12/22 16:43:14;;;;;;;46.10;23.35;;;;;;;;;;5020481;28;95369;-75
2021/12/22 16:45:41;;;;;;;37.28;21.40;;;;;;;;;;5030894;27;97908;-78
2021/12/22 16:48:07;;;;;;;41.83;22.70;;;;;;;;;;5028718;27;95668;-79
2021/12/22 16:50:33;;;;;;;40.00;22.58;;;;;;;;;;5023818;28;96746;-81
2021/12/22 16:53:01;;;;;;;36.05;21.05;;;;;;;;;;5023233;28;97346;-77
2021/12/22 16:55:30;;;;;;;38.17;21.75;;;;;;;;;;5022165;28;95245;-78
2021/12/22 16:58:01;;;;;;;34.85;21.17;;;;;;;;;;5014554;28;97126;-79
2021/12/22 17:00:28;;;;;;;45.22;21.60;;;;;;;;;;5003880;28;97502;-79
2021/12/22 17:02:55;;;;;;;34.92;20.25;;;;;;;;;;5019293;27;95722;-78
2021/12/22 17:05:22;;;;;;;36.50;20.27;;;;;;;;;;5035147;27;96708;-80
2021/12/22 17:07:49;;;;;;;33.00;19.98;;;;;;;;;;5004528;28;95737;-79
2021/12/22 17:10:30;;;;;;;37.45;19.13;;;;;;;;;;5009256;28;96849;-83
2021/12/22 17:12:56;;;;;;;36.60;20.52;;;;;;;;;;5018467;28;97348;-77
2021/12/22 17:15:23;;;;;;;37.25;20.88;;;;;;;;;;5004972;28;95327;-80
2021/12/22 17:17:49;;;;;;;39.05;21.42;;;;;;;;;;5022090;28;96779;-79
2021/12/22 17:20:16;;;;;;;35.70;21.20;;;;;;;;;;5022921;28;97550;-79
2021/12/22 17:22:43;;;;;;;36.17;20.85;;;;;;;;;;5021980;28;95807;-79
2021/12/22 17:25:10;;;;;;;40.60;19.73;;;;;;;;;;5017470;28;96930;-81
2021/12/22 17:27:36;;;;;;;39.47;20.13;;;;;;;;;;5026540;27;97293;-81
2021/12/22 17:30:04;;;;;;;42.85;20.98;;;;;;;;;;5023119;27;97521;-79
2021/12/22 17:32:32;;;;;;;47.03;23.52;;;;;;;;;;5022327;28;97310;-81
2021/12/22 17:34:58;;;;;;;38.67;23.42;;;;;;;;;;5000910;27;96947;-82
2021/12/22 17:37:26;;;;;;;39.45;22.40;;;;;;;;;;5009757;28;97278;-82
2021/12/22 17:39:52;;;;;;;38.25;22.88;;;;;;;;;;5008721;28;97335;-81
2021/12/22 17:42:19;;;;;;;38.33;24.08;;;;;;;;;;5007576;28;95739;-79
2021/12/22 17:44:45;;;;;;;42.97;23.70;;;;;;;;;;5008393;28;97376;-79
2021/12/22 17:47:11;;;;;;;48.72;24.42;;;;;;;;;;5009574;28;97286;-80
2021/12/22 17:49:38;;;;;;;36.55;21.17;;;;;;;;;;5004395;28;95178;-81
2021/12/22 17:52:04;;;;;;;33.83;20.42;;;;;;;;;;5008447;28;97411;-80
2021/12/22 17:54:41;;;;;;;39.78;20.85;;;;;;;;;;4995938;28;96555;-76
2021/12/22 17:57:07;;;;;;;37.85;22.48;;;;;;;;;;4989954;28;97010;-76
2021/12/22 17:59:33;;;;;;;43.67;22.17;;;;;;;;;;4994274;28;97635;-76
2021/12/22 18:02:00;;;;;;;41.72;22.60;;;;;;;;;;5009510;28;95642;-78
2021/12/22 18:04:27;;;;;;;42.13;22.95;;;;;;;;;;4998691;28;96717;-76
2021/12/22 18:06:53;;;;;;;36.75;20.98;;;;;;;;;;5001013;28;96904;-77
2021/12/22 18:09:20;;;;;;;40.85;21.90;;;;;;;;;;5007461;28;95988;-77
2021/12/22 18:11:47;;;;;;;44.90;23.55;;;;;;;;;;5013614;28;96679;-77
2021/12/22 18:14:16;;;;;;;49.15;24.60;;;;;;;;;;5010530;28;95582;-75
2021/12/22 18:16:47;;;;;;;40.70;23.65;;;;;;;;;;5010352;28;96937;-76
2021/12/22 18:19:13;;;;;;;44.15;21.70;;;;;;;;;;5014180;28;97860;-77
2021/12/22 18:21:40;;;;;;;37.47;20.92;;;;;;;;;;5011163;28;95332;-77
2021/12/22 18:24:06;;;;;;;41.47;22.95;;;;;;;;;;5002415;28;96803;-79
2021/12/22 18:26:33;;;;;;;45.10;24.48;;;;;;;;;;5009810;28;96420;-76
2021/12/22 18:29:00;;;;;;;45.35;24.80;;;;;;;;;;5012366;27;95638;-77
2021/12/22 18:31:27;;;;;;;44.25;26.73;;;;;;;;;;5013548;27;96963;-78
2021/12/22 18:33:53;;;;;;;42.42;24.45;;;;;;;;;;5009356;28;95692;-76
2021/12/22 18:36:19;;;;;;;44.10;23.33;;;;;;;;;;5006452;28;96773;-80
2021/12/22 18:38:46;;;;;;;40.63;22.48;;;;;;;;;;5006710;27;97630;-80
2021/12/22 18:41:20;;;;;;;34.95;20.25;;;;;;;;;;5006370;27;95450;-80
2021/12/22 18:43:46;;;;;;;31.70;19.40;;;;;;;;;;5016111;28;96729;-80
2021/12/22 18:46:13;;;;;;;38.15;19.98;;;;;;;;;;5016272;28;97094;-79
2021/12/22 18:48:39;;;;;;;38.63;20.95;;;;;;;;;;5004583;28;96035;-80
2021/12/22 18:51:06;;;;;;;35.85;18.65;;;;;;;;;;5011812;28;96871;-78
2021/12/22 18:53:32;;;;;;;33.30;19.58;;;;;;;;;;5016205;27;97797;-79
2021/12/22 18:55:59;;;;;;;34.35;20.42;;;;;;;;;;5005785;28;97107;-80
2021/12/22 18:58:27;;;;;;;39.03;21.23;;;;;;;;;;5006380;28;97287;-81
2021/12/22 19:00:55;;;;;;;39.33;20.25;;;;;;;;;;5012429;28;95410;-77
2021/12/22 19:03:26;;;;;;;36.00;20.20;;;;;;;;;;5015532;27;96229;-81
2021/12/22 19:05:52;;;;;;;39.65;21.30;;;;;;;;;;5011688;28;97813;-77
2021/12/22 19:08:19;;;;;;;36.38;20.33;;;;;;;;;;5004304;28;95482;-80
2021/12/22 19:10:46;;;;;;;39.13;22.65;;;;;;;;;;4991505;28;97266;-77
2021/12/22 19:13:12;;;;;;;32.53;18.75;;;;;;;;;;4999486;28;97352;-77
2021/12/22 19:15:38;;;;;;;33.60;19.27;;;;;;;;;;4996224;28;95317;-80
2021/12/22 19:18:06;;;;;;;33.30;18.77;;;;;;;;;;4989448;28;97383;-76
2021/12/22 19:20:32;;;;;;;34.35;19.20;;;;;;;;;;5001805;28;95729;-77
2021/12/22 19:22:58;;;;;;;35.85;18.50;;;;;;;;;;4988131;28;96823;-79
2021/12/22 19:25:25;;;;;;;38.65;19.23;;;;;;;;;;4995718;28;96923;-77
2021/12/22 19:27:52;;;;;;;35.55;18.70;;;;;;;;;;5004672;28;95827;-76
2021/12/22 19:30:18;;;;;;;31.27;18.75;;;;;;;;;;4989375;28;97162;-76
2021/12/22 19:32:45;;;;;;;32.33;18.70;;;;;;;;;;5003749;28;97334;-78
2021/12/22 19:35:14;;;;;;;32.15;18.95;;;;;;;;;;5004225;28;95628;-77
2021/12/22 19:37:41;;;;;;;35.17;18.92;;;;;;;;;;5010613;28;97173;-79
2021/12/22 19:40:08;;;;;;;37.00;20.50;;;;;;;;;;5005738;28;95699;-76
2021/12/22 19:42:35;;;;;;;35.53;19.33;;;;;;;;;;5002189;28;96548;-78
2021/12/22 19:45:01;;;;;;;32.65;18.50;;;;;;;;;;5007755;28;98053;-75
2021/12/22 19:47:27;;;;;;;31.23;17.95;;;;;;;;;;4998329;28;95656;-80
2021/12/22 19:49:54;;;;;;;33.17;19.20;;;;;;;;;;5003227;28;96803;-78
2021/12/22 19:52:21;;;;;;;38.08;19.50;;;;;;;;;;4999530;28;97576;-77
2021/12/22 19:54:47;;;;;;;35.42;19.65;;;;;;;;;;5001593;28;95675;-79
2021/12/22 19:57:18;;;;;;;36.20;19.77;;;;;;;;;;5015214;27;97184;-77
2021/12/22 19:59:44;;;;;;;39.83;21.52;;;;;;;;;;5012942;28;96377;-75
2021/12/22 20:02:10;;;;;;;36.58;20.15;;;;;;;;;;4999083;28;96813;-75
2021/12/22 20:04:40;;;;;;;45.90;19.33;;;;;;;;;;4996969;28;97769;-79
2021/12/22 20:07:07;;;;;;;37.42;19.35;;;;;;;;;;5011885;28;95805;-76
2021/12/22 20:09:33;;;;;;;40.38;18.58;;;;;;;;;;5010615;28;96856;-78
2021/12/22 20:12:00;;;;;;;37.45;18.58;;;;;;;;;;5000662;28;97418;-78
2021/12/22 20:14:26;;;;;;;34.28;18.60;;;;;;;;;;4996459;28;95919;-78
2021/12/22 20:16:56;;;;;;;34.20;18.35;;;;;;;;;;5009467;28;96720;-78
2021/12/22 20:19:23;;;;;;;38.03;19.88;;;;;;;;;;5005251;28;97343;-78
2021/12/22 20:21:49;;;;;;;32.60;17.63;;;;;;;;;;5006219;27;97318;-75
2021/12/22 20:24:16;;;;;;;31.85;17.10;;;;;;;;;;4991480;28;97397;-78
2021/12/22 20:26:42;;;;;;;31.00;17.08;;;;;;;;;;5005742;28;95686;-77
2021/12/22 20:29:08;;;;;;;32.95;17.20;;;;;;;;;;5009905;28;96913;-79
2021/12/22 20:31:35;;;;;;;30.70;16.67;;;;;;;;;;5012887;27;97345;-78
2021/12/22 20:34:02;;;;;;;33.28;16.65;;;;;;;;;;4995749;28;95674;-79
2021/12/22 20:36:30;;;;;;;31.77;16.40;;;;;;;;;;4987767;28;99369;-75
2021/12/22 20:38:57;;;;;;;29.20;16.45;;;;;;;;;;4998845;28;97226;-76
2021/12/22 20:41:23;;;;;;;35.35;17.33;;;;;;;;;;5007511;28;95651;-75
2021/12/22 20:43:49;;;;;;;30.75;17.80;;;;;;;;;;5005480;28;97181;-75
2021/12/22 20:46:16;;;;;;;32.13;17.88;;;;;;;;;;5007237;28;97015;-76
2021/12/22 20:48:44;;;;;;;36.22;18.00;;;;;;;;;;5006512;28;97081;-77
2021/12/22 20:51:11;;;;;;;29.88;17.38;;;;;;;;;;5005132;28;97312;-76
2021/12/22 20:53:38;;;;;;;34.75;17.83;;;;;;;;;;5003707;28;95821;-75
2021/12/22 20:56:04;;;;;;;32.30;17.17;;;;;;;;;;5006449;28;96788;-77
2021/12/22 20:58:35;;;;;;;31.90;17.85;;;;;;;;;;5006830;28;97334;-78
2021/12/22 21:01:03;;;;;;;38.28;18.67;;;;;;;;;;5004423;28;95454;-78
2021/12/22 21:03:29;;;;;;;34.63;18.05;;;;;;;;;;5008574;28;96488;-79
2021/12/22 21:05:56;;;;;;;36.45;18.50;;;;;;;;;;5005904;28;95556;-78
2021/12/22 21:08:23;;;;;;;37.63;18.98;;;;;;;;;;5006823;28;96705;-78
2021/12/22 21:10:51;;;;;;;34.63;18.25;;;;;;;;;;5003205;28;95893;-78
2021/12/22 21:13:23;;;;;;;38.30;18.05;;;;;;;;;;5022150;28;95835;-77
2021/12/22 21:15:49;;;;;;;33.08;16.73;;;;;;;;;;5008355;28;97233;-79
2021/12/22 21:18:16;;;;;;;29.10;17.35;;;;;;;;;;5010052;28;97411;-76
2021/12/22 21:20:42;;;;;;;34.88;18.63;;;;;;;;;;5010897;28;95518;-77
2021/12/22 21:23:09;;;;;;;41.72;19.52;;;;;;;;;;5010790;28;96898;-78
2021/12/22 21:25:35;;;;;;;34.63;18.33;;;;;;;;;;5011371;28;96413;-75
2021/12/22 21:28:02;;;;;;;36.85;17.98;;;;;;;;;;5011323;28;96709;-76
2021/12/22 21:30:30;;;;;;;41.20;19.77;;;;;;;;;;5009668;28;97818;-77
2021/12/22 21:32:58;;;;;;;35.20;18.27;;;;;;;;;;5004300;28;95427;-76
2021/12/22 21:35:25;;;;;;;38.72;17.95;;;;;;;;;;5006189;28;95641;-75
2021/12/22 21:37:52;;;;;;;34.47;17.65;;;;;;;;;;5007852;28;97830;-76
2021/12/22 21:40:19;;;;;;;32.53;17.95;;;;;;;;;;5006803;28;95613;-76
2021/12/22 21:42:46;;;;;;;33.10;17.77;;;;;;;;;;4991501;28;96761;-75
2021/12/22 21:45:12;;;;;;;37.22;17.65;;;;;;;;;;4998341;28;97256;-75
2021/12/22 21:47:39;;;;;;;32.08;17.88;;;;;;;;;;5013332;28;95253;-74
2021/12/22 21:50:06;;;;;;;31.55;16.95;;;;;;;;;;5005027;28;97135;-75
2021/12/22 21:52:33;;;;;;;37.97;19.83;;;;;;;;;;5010385;28;95704;-75
2021/12/22 21:54:59;;;;;;;37.85;21.05;;;;;;;;;;5010522;28;97003;-76
2021/12/22 21:57:26;;;;;;;37.53;19.63;;;;;;;;;;5010326;28;97350;-76
2021/12/22 21:59:52;;;;;;;34.92;19.20;;;;;;;;;;5010255;28;95947;-77
2021/12/22 22:02:18;;;;;;;34.40;17.50;;;;;;;;;;5009255;28;97210;-75
2021/12/22 22:04:45;;;;;;;29.52;16.88;;;;;;;;;;5009763;28;97406;-75
2021/12/22 22:07:13;;;;;;;35.33;18.00;;;;;;;;;;5009885;28;95371;-77
2021/12/22 22:09:39;;;;;;;43.03;16.77;;;;;;;;;;5005901;28;96829;-75
2021/12/22 22:12:06;;;;;;;27.02;16.27;;;;;;;;;;5008036;28;95378;-75
2021/12/22 22:14:32;;;;;;;35.47;18.25;;;;;;;;;;5010140;28;96980;-76
2021/12/22 22:16:58;;;;;;;32.85;17.42;;;;;;;;;;5007061;28;96205;-75
2021/12/22 22:19:25;;;;;;;34.22;17.67;;;;;;;;;;5008731;28;95559;-77
2021/12/22 22:21:54;;;;;;;30.15;16.40;;;;;;;;;;5005722;28;96904;-77
2021/12/22 22:24:23;;;;;;;33.08;16.45;;;;;;;;;;5010066;28;97350;-75
2021/12/22 22:26:56;;;;;;;30.80;17.02;;;;;;;;;;5008878;28;95282;-75
2021/12/22 22:29:25;;;;;;;32.08;16.60;;;;;;;;;;5009674;28;96796;-75
2021/12/22 22:32:02;;;;;;;32.78;17.60;;;;;;;;;;5013184;28;96141;-79
2021/12/22 22:34:29;;;;;;;30.13;16.45;;;;;;;;;;5008568;28;97276;-76
2021/12/22 22:36:55;;;;;;;29.60;16.95;;;;;;;;;;5009070;28;97113;-76
2021/12/22 22:39:26;;;;;;;28.10;16.08;;;;;;;;;;5012548;28;95515;-75
2021/12/22 22:41:53;;;;;;;29.35;15.98;;;;;;;;;;5011903;27;96171;-77
2021/12/22 22:44:21;;;;;;;31.88;16.50;;;;;;;;;;5008808;28;97229;-76
2021/12/22 22:46:47;;;;;;;29.88;16.60;;;;;;;;;;5009830;28;95770;-75
2021/12/22 22:49:14;;;;;;;30.88;16.73;;;;;;;;;;5009058;28;97099;-76
2021/12/22 22:51:40;;;;;;;33.38;17.05;;;;;;;;;;5012259;28;98072;-75
2021/12/22 22:54:06;;;;;;;28.73;15.55;;;;;;;;;;5007969;28;97163;-75
2021/12/22 22:56:33;;;;;;;30.83;17.27;;;;;;;;;;5009364;28;97686;-75
2021/12/22 22:58:59;;;;;;;30.60;17.25;;;;;;;;;;5009184;28;95406;-76
2021/12/22 23:01:42;;;;;;;37.90;16.45;;;;;;;;;;5003038;28;96943;-79
2021/12/22 23:04:08;;;;;;;36.10;17.50;;;;;;;;;;5008049;28;97594;-76
2021/12/22 23:06:35;;;;;;;31.25;16.95;;;;;;;;;;5002660;28;95683;-77
2021/12/22 23:09:02;;;;;;;33.92;17.55;;;;;;;;;;5009369;28;96798;-76